Latest Weather Observations for Casterton

IDV60801

Issued at 10:32 pm EDT Thursday 23 February 2017 (issued every 30 minutes, with the page automatically refreshed every 10 minutes)

About weather observations | Map of weather stations | Latest weather observations for VIC | Other Formats
Station Details ID: 090182 Name: CASTERTON Lat: -37.58 Lon: 141.33 Height: 130.6 m
Data from the previous 72 hours. | See also: Recent months at Casterton
Date/Time
EDT
Temp
°C
App
Temp
°C
Dew
Point
°C
Rel
Hum
%
Delta-T
°C
Wind Press
QNH
hPa
Press
MSL
hPa
Rain since
9am
mm
Dir  Spd
km/h
Gust
km/h
Spd
kts
Gust
kts
23/10:30pm 14.6 12.8 11.0 79 1.9 SW 11 15 6 8 1023.8 1023.4 0.0
23/10:00pm 14.9 12.8 11.1 78 2.0 SW 13 20 7 11 1023.6 1023.2 0.0
23/09:30pm 15.1 12.2 11.1 77 2.1 SW 17 24 9 13 1023.2 1022.8 0.0
23/09:00pm 15.3 13.3 11.5 78 2.0 SW 13 19 7 10 1022.8 1022.4 0.0
23/08:30pm 15.5 13.2 11.7 78 2.1 SW 15 24 8 13 1022.3 1021.9 0.0
23/08:00pm 16.0 13.4 12.0 77 2.2 SSW 17 22 9 12 1021.9 1021.5 0.0
23/07:30pm 16.3 13.8 12.3 77 2.2 SSW 17 20 9 11 1021.5 1021.1 0.0
23/07:00pm 16.7 14.0 12.8 78 2.2 SSW 19 28 10 15 1021.3 1020.9 0.0
23/06:30pm 17.6 15.5 13.5 77 2.3 SSW 17 22 9 12 1021.0 1020.6 0.0
23/06:00pm 18.1 16.1 13.8 76 2.5 SSW 17 22 9 12 1020.8 1020.4 0.0
23/05:30pm 18.7 17.4 13.8 73 2.8 SW 13 20 7 11 1020.5 1020.1 0.0
23/05:00pm 18.5 16.1 13.8 74 2.7 SSW 19 24 10 13 1020.2 1019.8 0.0
23/04:30pm 19.4 16.9 13.6 69 3.3 SW 19 26 10 14 1020.1 1019.7 0.0
23/04:00pm 19.3 17.2 13.5 69 3.3 WSW 17 26 9 14 1020.1 1019.7 0.0
23/03:30pm 19.9 18.0 13.1 65 3.9 WSW 15 20 8 11 1020.0 1019.6 0.0
23/03:00pm 18.7 16.1 13.3 71 3.1 WSW 19 26 10 14 1020.0 1019.6 0.0
23/02:30pm 19.5 18.8 13.2 67 3.6 WSW 9 17 5 9 1019.5 1019.2 0.0
23/02:00pm 18.5 16.5 13.8 74 2.7 WSW 17 26 9 14 1019.4 1019.0 0.0
23/01:30pm 18.7 17.2 13.1 70 3.2 SW 13 22 7 12 1019.4 1019.0 0.0
23/01:00pm 17.0 16.6 14.1 83 1.7 WSW 9 17 5 9 1019.7 1019.4 0.0
23/12:30pm 17.6 15.1 13.5 77 2.3 WSW 19 26 10 14 1019.7 1019.4 0.0
23/12:00pm 18.6 16.9 13.7 73 2.8 W 15 24 8 13 1019.4 1019.0 0.0
23/11:30am 17.5 15.5 13.8 79 2.1 SW 17 24 9 13 1019.3 1018.9 0.0
23/11:00am 17.4 16.6 13.9 80 2.0 WSW 11 17 6 9 1019.0 1018.6 0.0
23/10:30am 17.3 14.6 13.4 78 2.2 WSW 20 33 11 18 1018.5 1018.1 0.0
23/10:00am 16.8 15.3 14.1 84 1.5 SW 15 24 8 13 1018.0 1017.6 0.0
23/09:30am 15.6 12.6 13.6 88 1.1 W 22 35 12 19 1017.7 1017.3 0.0
23/09:00am 15.9 13.4 13.4 85 1.4 WSW 19 32 10 17 1017.4 1017.0 0.0
23/08:30am 15.3 13.3 13.8 91 0.8 W 17 32 9 17 1017.0 1016.6 0.0
23/08:00am 15.0 13.0 14.0 94 0.6 W 17 24 9 13 1016.3 1015.9 0.0
23/07:30am 14.9 13.0 14.1 95 0.5 W 17 30 9 16 1015.8 1015.4 0.0
23/07:00am 14.8 12.8 14.0 95 0.5 W 17 24 9 13 1015.2 1014.8 0.0
23/06:30am 15.3 12.4 14.0 92 0.7 W 22 37 12 20 1014.6 1014.2 0.0
23/06:00am 16.1 14.1 13.8 86 1.3 WNW 17 26 9 14 1014.2 1013.8 0.0
23/05:30am 16.2 12.8 13.7 85 1.4 W 24 39 13 21 1013.8 1013.4 0.0
23/05:00am 16.3 13.3 13.8 85 1.4 W 22 33 12 18 1013.6 1013.2 0.0
23/04:30am 16.6 13.1 13.5 82 1.8 WNW 24 43 13 23 1013.0 1012.6 0.0
23/04:00am 16.6 12.7 13.3 81 1.9 WNW 26 39 14 21 1012.9 1012.5 0.0
23/03:30am 16.5 11.8 13.2 81 1.9 WNW 30 44 16 24 1012.6 1012.1 0.0
23/03:00am 16.2 12.2 12.9 81 1.8 WNW 26 39 14 21 1012.6 1012.1 0.0
23/02:30am 16.2 12.5 12.7 80 1.9 WNW 24 39 13 21 1012.5 1012.0 0.0
23/02:00am 16.4 13.4 12.6 78 2.1 WNW 20 30 11 16 1012.6 1012.1 0.0
23/01:30am 16.7 13.3 12.5 76 2.3 WNW 22 30 12 16 1012.4 1011.9 0.0
23/01:12am 17.1 12.5 12.4 74 2.6 WNW 28 54 15 29 1012.2 1011.7 0.0
23/01:00am 17.3 12.3 12.2 72 2.8 WNW 30 44 16 24 1012.0 1011.5 0.0
23/12:45am 17.5 12.9 12.2 71 2.9 WNW 28 48 15 26 1011.8 1011.4 0.0
23/12:30am 17.5 13.6 12.0 70 3.0 WNW 24 39 13 21 1012.0 1011.5 0.0
23/12:00am 17.7 14.1 11.9 69 3.2 WNW 22 32 12 17 1012.0 1011.5 0.0
 
Date/Time
EDT
Temp
°C
App
Temp
°C
Dew
Point
°C
Rel
Hum
%
Delta-T
°C
Wind Press
QNH
hPa
Press
MSL
hPa
Rain since
9am
mm
Dir  Spd
km/h
Gust
km/h
Spd
kts
Gust
kts
22/11:30pm 17.8 14.6 11.8 68 3.3 WNW 20 28 11 15 1012.1 1011.6 0.0
22/11:00pm 18.3 14.1 11.1 63 3.9 NW 24 35 13 19 1012.0 1011.5 0.0
22/10:30pm 18.9 13.1 10.7 59 4.5 NW 32 46 17 25 1011.5 1011.1 0.0
22/10:00pm 19.0 13.8 10.3 57 4.7 NW 28 39 15 21 1011.2 1010.8 0.0
22/09:30pm 19.2 13.6 10.2 56 4.9 NW 30 44 16 24 1010.7 1010.3 0.0
22/09:00pm 19.6 14.3 9.8 53 5.3 WNW 28 43 15 23 1010.4 1010.0 0.0
22/08:42pm 20.1 14.0 9.7 51 5.6 WNW 32 57 17 31 1010.1 1009.7 0.0
22/08:30pm 20.1 14.3 9.4 50 5.7 NW 30 44 16 24 1009.8 1009.4 0.0
22/08:00pm 21.5 15.6 9.1 45 6.7 WNW 30 43 16 23 1009.1 1008.7 0.0
22/07:30pm 22.6 15.3 7.2 37 8.0 WNW 35 56 19 30 1008.8 1008.4 0.0
22/07:00pm 23.0 16.7 9.0 41 7.6 WNW 32 57 17 31 1008.6 1008.2 0.0
22/06:30pm 24.3 18.9 9.5 39 8.1 WNW 28 48 15 26 1008.0 1007.6 0.0
22/06:00pm 25.0 19.5 10.5 40 8.1 WNW 30 48 16 26 1007.6 1007.2 0.0
22/05:35pm 27.4 20.9 8.8 31 10.2 WNW 33 52 18 28 1007.1 1006.7 0.0
22/05:30pm 27.2 20.0 9.1 32 10.0 WNW 37 52 20 28 1007.0 1006.6 0.0
22/05:03pm 27.9 20.5 8.2 29 10.8 WNW 37 56 20 30 1006.5 1006.1 0.0
22/05:00pm 28.3 20.5 8.1 28 11.1 WNW 39 56 21 30 1006.4 1006.0 0.0
22/04:34pm 30.6 22.6 5.8 21 13.2 NW 37 57 20 31 1005.9 1005.4 0.0
22/04:30pm 30.2 22.2 5.5 21 13.0 NW 37 54 20 29 1005.8 1005.3 0.0
22/04:00pm 31.5 23.5 5.8 20 13.8 NW 37 59 20 32 1005.6 1005.1 0.0
22/03:45pm 33.5 25.6 4.2 16 15.4 NW 35 54 19 29 1005.4 1004.9 0.0
22/03:40pm 33.4 25.3 3.3 15 15.6 NW 35 61 19 33 1005.2 1004.7 0.0
22/03:31pm 33.5 23.9 1.3 13 16.2 NNW 41 61 22 33 1005.3 1004.8 0.0
22/03:30pm 33.4 23.8 1.3 13 16.1 NNW 41 56 22 30 1005.4 1004.9 0.0
22/03:13pm 33.9 24.6 0.5 12 16.6 NW 39 69 21 37 1005.5 1005.0 0.0
22/03:12pm 34.5 25.4 2.1 13 16.6 NW 39 56 21 30 1005.6 1005.1 0.0
22/03:00pm 33.6 23.5 1.4 13 16.3 NNW 44 69 24 37 1005.8 1005.3 0.0
22/02:30pm 33.2 24.4 1.1 13 16.0 NNW 37 57 20 31 1006.4 1006.0 0.0
22/02:00pm 31.9 22.3 1.1 14 15.3 N 41 59 22 32 1007.0 1006.6 0.0
22/01:32pm 32.3 23.3 2.4 15 15.2 N 39 57 21 31 1007.6 1007.2 0.0
22/01:30pm 31.4 22.0 2.6 16 14.6 N 41 57 22 31 1007.6 1007.2 0.0
22/01:00pm 30.7 22.2 1.1 15 14.6 N 35 54 19 29 1008.1 1007.7 0.0
22/12:30pm 30.0 22.3 2.3 17 13.8 N 32 50 17 27 1008.5 1008.1 0.0
22/12:00pm 28.6 20.8 2.7 19 12.9 N 33 52 18 28 1009.2 1008.8 0.0
22/11:31am 27.0 19.3 3.5 22 11.8 NNE 33 52 18 28 1009.2 1008.8 0.0
22/11:30am 27.3 19.3 3.7 22 11.9 NNE 35 52 19 28 1009.3 1008.9 0.0
22/11:01am 26.2 19.2 4.1 24 11.1 NNE 30 50 16 27 1009.5 1009.1 0.0
22/11:00am 26.4 19.4 4.2 24 11.2 NNE 30 44 16 24 1009.6 1009.2 0.0
22/10:30am 23.8 18.6 3.7 27 9.9 NNE 20 54 11 29 1009.9 1009.5 0.0
22/10:14am 23.8 16.8 4.2 28 9.7 NNE 30 48 16 26 1010.3 1009.9 0.0
22/10:00am 23.9 16.5 3.8 27 9.9 NNE 32 46 17 25 1010.4 1010.0 0.0
22/09:42am 22.9 15.8 3.4 28 9.5 NNE 30 48 16 26 1010.6 1010.2 0.0
22/09:30am 22.5 15.4 3.6 29 9.2 NNE 30 46 16 25 1010.6 1010.2 0.0
22/09:00am 21.4 15.5 4.0 32 8.5 NNE 24 37 13 20 1011.3 1010.9 0.2
22/08:30am 19.6 13.7 3.7 35 7.6 NNE 24 39 13 21 1011.4 1011.0 0.2
22/08:00am 18.5 13.0 3.9 38 6.9 NNE 22 39 12 21 1011.2 1010.8 0.2
22/07:30am 17.7 12.2 3.9 40 6.5 NNE 22 33 12 18 1011.0 1010.6 0.2
22/07:00am 17.8 12.6 3.7 39 6.6 NNE 20 32 11 17 1011.1 1010.7 0.2
22/06:30am 18.1 13.1 3.6 38 6.8 NNE 19 30 10 16 1011.2 1010.8 0.2
22/06:00am 18.1 13.0 3.2 37 7.0 NE 19 30 10 16 1011.2 1010.8 0.2
22/05:30am 17.9 13.6 3.4 38 6.8 NNE 15 20 8 11 1011.4 1011.0 0.2
22/05:00am 17.0 13.1 3.3 40 6.4 NE 13 22 7 12 1011.5 1011.1 0.2
22/04:30am 17.9 13.6 3.4 38 6.8 NNE 15 24 8 13 1011.5 1011.1 0.2
22/04:00am 16.6 12.8 4.0 43 5.9 NE 13 19 7 10 1011.7 1011.3 0.2
22/03:30am 16.5 12.7 3.9 43 5.9 ENE 13 19 7 10 1012.2 1011.7 0.2
22/03:00am 16.0 12.7 4.4 46 5.5 NE 11 15 6 8 1012.6 1012.1 0.2
22/02:30am 14.9 11.7 4.9 51 4.7 NE 11 13 6 7 1013.0 1012.6 0.2
22/02:00am 15.6 12.5 5.5 51 4.9 NE 11 15 6 8 1013.4 1013.0 0.2
22/01:30am 15.0 11.7 6.3 56 4.2 NE 13 15 7 8 1013.8 1013.4 0.2
22/01:00am 13.6 11.3 7.6 67 3.0 ENE 9 11 5 6 1014.2 1013.8 0.2
22/12:30am 13.5 11.4 6.8 64 3.3 ENE 7 11 4 6 1014.6 1014.2 0.2
22/12:00am 13.8 11.2 6.2 60 3.7 ENE 9 11 5 6 1015.0 1014.6 0.2
 
Date/Time
EDT
Temp
°C
App
Temp
°C
Dew
Point
°C
Rel
Hum
%
Delta-T
°C
Wind Press
QNH
hPa
Press
MSL
hPa
Rain since
9am
mm
Dir  Spd
km/h
Gust
km/h
Spd
kts
Gust
kts
21/11:30pm 14.8 12.0 5.3 53 4.5 ENE 9 11 5 6 1015.1 1014.7 0.2
21/11:00pm 14.8 12.0 5.3 53 4.5 ENE 9 11 5 6 1015.4 1015.0 0.2
21/10:30pm 15.9 13.1 5.2 49 5.1 ENE 9 11 5 6 1015.6 1015.2 0.2
21/10:00pm 16.9 14.7 5.2 46 5.6 ENE 6 7 3 4 1015.6 1015.2 0.2
21/09:30pm 17.5 16.5 5.4 45 5.9 CALM 0 0 0 0 1015.5 1015.1 0.2
21/09:00pm 18.7 17.4 5.9 43 6.3 ENE 2 7 1 4 1015.4 1015.0 0.2
21/08:30pm 20.9 19.4 4.9 35 7.9 NE 2 7 1 4 1015.3 1014.9 0.2
21/08:00pm 23.3 20.7 4.3 29 9.4 N 7 13 4 7 1015.1 1014.7 0.2
21/07:30pm 24.7 21.7 3.9 26 10.3 NNE 9 13 5 7 1015.0 1014.6 0.2
21/07:00pm 25.0 21.1 3.6 25 10.6 NNE 13 20 7 11 1015.1 1014.7 0.2
21/06:30pm 25.4 21.7 4.5 26 10.5 NNW 13 20 7 11 1015.1 1014.7 0.2
21/06:00pm 25.0 21.3 4.2 26 10.4 N 13 24 7 13 1015.5 1015.1 0.2
21/05:30pm 24.9 20.8 4.6 27 10.2 N 15 22 8 12 1015.9 1015.5 0.2
21/05:00pm 25.2 20.9 5.4 28 10.1 N 17 24 9 13 1016.2 1015.8 0.2
21/04:30pm 24.7 21.1 5.0 28 10.0 NNE 13 19 7 10 1016.4 1016.0 0.2
21/04:00pm 25.1 21.8 6.3 30 9.8 NNE 13 20 7 11 1016.9 1016.5 0.2
21/03:30pm 23.8 20.0 5.7 31 9.2 N 15 20 8 11 1017.2 1016.8 0.2
21/03:00pm 23.5 20.6 6.3 33 8.8 N 11 17 6 9 1017.8 1017.4 0.2
21/02:30pm 23.0 20.4 6.3 34 8.6 NW 9 15 5 8 1018.4 1018.0 0.2
21/02:00pm 23.0 20.5 6.7 35 8.4 WNW 9 20 5 11 1018.8 1018.4 0.2
21/01:30pm 21.4 18.9 6.5 38 7.6 N 9 20 5 11 1019.0 1018.6 0.2
21/01:00pm 20.8 18.2 6.0 38 7.4 NNE 9 19 5 10 1019.4 1019.0 0.2
21/12:30pm 20.5 18.6 6.5 40 7.1 WSW 6 13 3 7 1020.2 1019.8 0.2
21/12:00pm 20.0 17.5 8.4 47 6.1 NNE 11 20 6 11 1020.4 1020.0 0.2
21/11:30am 19.0 16.5 8.4 50 5.5 ENE 11 19 6 10 1020.7 1020.3 0.2
21/11:00am 17.0 13.9 7.1 52 4.9 NE 13 20 7 11 1021.0 1020.6 0.0
21/10:30am 16.0 13.9 9.7 66 3.3 NE 11 13 6 7 1021.2 1020.8 0.0
21/10:00am 14.2 12.2 10.0 76 2.2 ENE 11 15 6 8 1021.2 1020.8 0.0
21/09:30am 11.4 10.2 10.3 93 0.6 ENE 7 11 4 6 1021.1 1020.7 0.0
21/09:00am 9.3 7.8 9.2 99 0.0 ENE 7 11 4 6 1020.8 1020.4 0.0
21/08:30am 7.8 7.3 7.7 99 0.0 CALM 0 0 0 0 1021.0 1020.6 0.0
21/08:00am 5.7 4.7 5.6 99 0.0 CALM 0 0 0 0 1020.7 1020.3 0.0
21/07:30am 3.8 2.4 3.7 99 0.0 CALM 0 0 0 0 1020.2 1019.8 0.0
21/07:00am 4.8 2.5 4.7 99 0.0 ENE 6 7 3 4 1019.7 1019.4 0.0
21/06:30am 5.1 2.6 5.0 99 0.0 NE 7 7 4 4 1019.5 1019.2 0.0
21/06:00am 4.4 3.1 4.3 99 0.0 CALM 0 0 0 0 1019.4 1019.0 0.0
21/05:30am 4.6 3.4 4.5 99 0.0 CALM 0 0 0 0 1019.3 1018.9 0.0
21/05:00am 5.2 4.1 5.1 99 0.0 CALM 0 0 0 0 1019.2 1018.8 0.0
21/04:30am 5.2 4.1 5.1 99 0.0 CALM 0 0 0 0 1018.9 1018.5 0.0
21/04:00am 5.6 4.6 5.5 99 0.0 CALM 0 0 0 0 1018.7 1018.3 0.0
21/03:30am 5.8 4.8 5.7 99 0.0 CALM 0 0 0 0 1018.8 1018.4 0.0
21/03:00am 6.3 5.4 6.2 99 0.0 CALM 0 0 0 0 1019.1 1018.7 0.0
21/02:30am 5.9 4.9 5.6 98 0.1 CALM 0 0 0 0 1019.0 1018.6 0.0
21/02:00am 7.1 6.4 7.0 99 0.0 CALM 0 0 0 0 1019.2 1018.8 0.0
21/01:30am 6.7 5.9 6.4 98 0.1 CALM 0 0 0 0 1019.2 1018.8 0.0
21/01:00am 6.6 5.7 6.2 97 0.2 CALM 0 0 0 0 1019.5 1019.2 0.0
21/12:30am 6.2 5.2 5.8 97 0.2 CALM 0 0 0 0 1019.6 1019.3 0.0
21/12:00am 7.7 7.0 7.1 96 0.3 CALM 0 0 0 0 1019.5 1019.2 0.0
 
Date/Time
EDT
Temp
°C
App
Temp
°C
Dew
Point
°C
Rel
Hum
%
Delta-T
°C
Wind Press
QNH
hPa
Press
MSL
hPa
Rain since
9am
mm
Dir  Spd
km/h
Gust
km/h
Spd
kts
Gust
kts
20/11:30pm 7.3 6.5 6.4 94 0.4 CALM 0 0 0 0 1019.7 1019.4 0.0
20/11:00pm 8.5 7.9 7.3 92 0.6 CALM 0 0 0 0 1019.5 1019.2 0.0

Other Formats:

Comma delimited format used in spreadsheet applications
http://www.bom.gov.au/fwo/IDV60801/IDV60801.95825.axf

JavaScript Object Notation format (JSON) in row-major order
http://www.bom.gov.au/fwo/IDV60801/IDV60801.95825.json